createdAt,value
2019-02-04T00:01:21.009Z,29.90
2019-02-04T00:03:55.909Z,29.27
2019-02-04T00:06:30.711Z,29.80
2019-02-04T00:09:08.478Z,29.50
2019-02-04T00:11:43.295Z,29.37
2019-02-04T00:22:36.065Z,28.90
2019-02-04T00:32:56.787Z,30.23
2019-02-04T00:35:31.588Z,30.70
2019-02-04T00:38:06.375Z,30.83
2019-02-04T00:40:41.246Z,30.27
2019-02-04T00:43:16.026Z,29.83
2019-02-04T00:45:50.750Z,30.30
2019-02-04T00:48:25.495Z,29.63
2019-02-04T00:51:00.217Z,29.50
2019-02-04T00:53:35.107Z,29.17
2019-02-04T00:56:09.810Z,29.73
2019-02-04T00:58:44.538Z,28.80
2019-02-04T01:01:19.398Z,29.17
2019-02-04T01:03:54.118Z,29.30
2019-02-04T01:06:28.983Z,29.47
2019-02-04T01:09:07.919Z,30.00
2019-02-04T01:11:42.722Z,29.10
2019-02-04T01:14:17.450Z,29.57
2019-02-04T01:17:02.978Z,29.50
2019-02-04T01:19:28.670Z,28.47
2019-02-04T01:22:03.560Z,29.70
2019-02-04T01:24:38.278Z,29.13
2019-02-04T01:27:13.003Z,29.17
2019-02-04T01:29:47.799Z,29.27
2019-02-04T01:32:22.506Z,29.63
2019-02-04T01:34:57.231Z,29.80
2019-02-04T01:37:32.158Z,30.07
2019-02-04T01:40:11.290Z,30.17
2019-02-04T01:42:46.086Z,30.07
2019-02-04T01:45:20.894Z,30.30
2019-02-04T01:47:55.761Z,29.57
2019-02-04T01:50:30.622Z,29.50
2019-02-04T01:53:05.425Z,29.63
2019-02-04T02:06:11.350Z,29.30
2019-02-04T02:08:46.426Z,29.47
2019-02-04T02:11:21.250Z,28.67
2019-02-04T02:13:57.031Z,29.33
2019-02-04T02:16:31.830Z,29.17
2019-02-04T02:19:06.622Z,29.53
2019-02-04T02:21:41.373Z,29.23
2019-02-04T02:24:16.078Z,29.00
2019-02-04T02:26:50.809Z,29.83
2019-02-04T02:29:25.601Z,30.33
2019-02-04T02:32:00.335Z,29.33
2019-02-04T02:34:35.096Z,28.67
2019-02-04T02:37:09.806Z,29.67
2019-02-04T02:39:44.526Z,29.63
2019-02-04T02:42:19.271Z,29.93
2019-02-04T02:44:53.984Z,28.50
2019-02-04T02:47:38.067Z,29.97
2019-02-04T02:50:06.773Z,29.07
2019-02-04T02:52:41.496Z,29.53
2019-02-04T02:55:16.594Z,29.80
2019-02-04T02:57:51.463Z,29.33
2019-02-04T03:00:27.919Z,30.30
2019-02-04T03:03:02.643Z,30.03
2019-02-04T03:05:37.362Z,30.13
2019-02-04T03:08:12.095Z,30.13
2019-02-04T03:10:46.891Z,28.87
2019-02-04T03:13:21.628Z,29.47
2019-02-04T03:15:56.400Z,29.77
2019-02-04T03:18:31.115Z,29.17
2019-02-04T03:21:05.857Z,29.50
2019-02-04T03:23:41.407Z,29.17
2019-02-04T03:26:16.210Z,29.83
2019-02-04T03:28:51.122Z,28.87
2019-02-04T03:31:25.910Z,28.93
2019-02-04T03:34:00.690Z,29.47
2019-02-04T03:36:35.562Z,29.47
2019-02-04T03:39:10.456Z,29.67
2019-02-04T03:41:45.243Z,29.83
2019-02-04T03:44:19.959Z,29.03
2019-02-04T03:46:54.686Z,28.80
2019-02-04T03:49:29.774Z,29.80
2019-02-04T03:52:04.759Z,29.13
2019-02-04T03:54:39.474Z,28.53
2019-02-04T03:57:14.356Z,29.93
2019-02-04T03:59:49.526Z,29.67
2019-02-04T04:02:25.427Z,29.70
2019-02-04T04:05:00.211Z,29.43
2019-02-04T04:07:34.950Z,29.03
2019-02-04T04:10:10.643Z,29.93
2019-02-04T04:12:45.458Z,30.00
2019-02-04T04:15:20.318Z,29.17
2019-02-04T04:17:55.191Z,29.80
2019-02-04T04:20:30.067Z,29.27
2019-02-04T04:23:04.926Z,29.27
2019-02-04T04:25:39.719Z,29.83
2019-02-04T04:28:14.732Z,30.00
2019-02-04T04:30:49.538Z,29.77
2019-02-04T04:33:24.448Z,29.70
2019-02-04T04:35:59.228Z,29.10
2019-02-04T04:38:33.955Z,29.30
2019-02-04T04:41:08.738Z,28.97
2019-02-04T04:43:44.090Z,29.57
2019-02-04T04:46:18.828Z,29.60
2019-02-04T04:48:55.674Z,28.90
2019-02-04T04:51:30.043Z,28.30
2019-02-04T04:54:05.041Z,28.63
2019-02-04T04:56:39.829Z,29.13
2019-02-04T04:59:14.540Z,29.27
2019-02-04T05:01:49.314Z,28.83
2019-02-04T05:04:24.050Z,28.63
2019-02-04T05:07:00.628Z,29.40
2019-02-04T05:09:35.322Z,29.67
2019-02-04T05:12:10.203Z,29.27
2019-02-04T05:14:45.098Z,29.53
2019-02-04T05:17:19.829Z,29.87
2019-02-04T05:19:55.662Z,29.50
2019-02-04T05:22:30.411Z,29.87
2019-02-04T05:25:06.479Z,31.10
2019-02-04T05:27:41.282Z,30.10
2019-02-04T05:30:18.327Z,30.83
2019-02-04T05:32:53.218Z,30.40
2019-02-04T05:35:27.961Z,31.00
2019-02-04T05:38:02.772Z,30.67
2019-02-04T05:40:38.652Z,30.50
2019-02-04T05:43:13.527Z,29.67
2019-02-04T05:45:48.416Z,30.90
2019-02-04T05:48:23.219Z,29.63
2019-02-04T05:50:57.962Z,30.17
2019-02-04T05:53:32.762Z,30.13
2019-02-04T05:56:07.611Z,30.40
2019-02-04T05:58:42.427Z,29.93
2019-02-04T06:01:17.230Z,29.00
2019-02-04T06:03:52.040Z,29.33
2019-02-04T06:06:26.755Z,31.57
2019-02-04T06:09:01.484Z,28.50
2019-02-04T06:11:36.384Z,29.03
2019-02-04T06:14:11.158Z,28.70
2019-02-04T06:16:45.951Z,29.00
2019-02-04T06:19:20.745Z,28.77
2019-02-04T06:21:55.506Z,28.60
2019-02-04T06:24:30.471Z,29.40
2019-02-04T06:27:05.386Z,30.23
2019-02-04T06:29:40.119Z,30.13
2019-02-04T06:32:14.911Z,30.00
2019-02-04T06:34:49.638Z,29.90
2019-02-04T06:37:24.498Z,30.93
2019-02-04T06:39:59.223Z,30.77
2019-02-04T06:42:33.958Z,31.10
2019-02-04T06:45:10.685Z,30.40
2019-02-04T06:47:45.825Z,28.63
2019-02-04T06:50:20.810Z,28.47
2019-02-04T06:52:55.680Z,28.20
2019-02-04T06:55:31.766Z,30.07
2019-02-04T06:58:07.582Z,31.00
2019-02-04T07:00:42.386Z,30.87
2019-02-04T07:03:17.166Z,30.43
2019-02-04T07:05:51.899Z,30.20
2019-02-04T07:08:26.619Z,31.67
2019-02-04T07:11:01.450Z,30.00
2019-02-04T07:13:39.239Z,29.47
2019-02-04T07:16:12.782Z,29.40
2019-02-04T07:18:47.495Z,29.20
2019-02-04T07:21:22.290Z,31.70
2019-02-04T07:23:57.008Z,31.23
2019-02-04T07:26:31.755Z,33.77
2019-02-04T07:29:06.535Z,33.30
2019-02-04T07:31:41.410Z,36.50
2019-02-04T07:34:16.138Z,37.57
2019-02-04T07:36:50.940Z,36.60
2019-02-04T07:39:25.661Z,34.30
2019-02-04T07:42:00.454Z,32.40
2019-02-04T07:44:35.163Z,33.73
2019-02-04T07:47:10.032Z,33.93
2019-02-04T07:49:44.902Z,34.43
2019-02-04T07:52:19.639Z,32.73
2019-02-04T07:54:54.354Z,33.00
2019-02-04T07:57:29.131Z,32.33
2019-02-04T08:00:04.567Z,31.97
2019-02-04T08:02:39.442Z,58.67
2019-02-04T08:05:14.338Z,50.87
2019-02-04T08:07:49.227Z,36.60
2019-02-04T08:10:24.030Z,33.87
2019-02-04T08:13:01.682Z,36.97
2019-02-04T08:15:37.144Z,31.93
2019-02-04T08:18:15.218Z,34.50
2019-02-04T08:20:49.930Z,32.27
2019-02-04T08:23:25.131Z,31.23
2019-02-04T08:25:59.842Z,31.20
2019-02-04T08:28:40.668Z,30.80
2019-02-04T08:31:15.453Z,30.40
2019-02-04T08:33:50.359Z,29.83
2019-02-04T08:36:25.222Z,30.03
2019-02-04T08:39:00.100Z,30.83
2019-02-04T08:41:34.882Z,30.10
2019-02-04T08:44:10.040Z,30.30
2019-02-04T08:46:45.818Z,30.23
2019-02-04T08:49:20.579Z,30.90
2019-02-04T08:51:55.376Z,29.80
2019-02-04T08:54:33.640Z,30.80
2019-02-04T08:57:08.623Z,30.73
2019-02-04T08:59:43.398Z,29.87
2019-02-04T09:02:18.214Z,30.10
2019-02-04T09:04:54.471Z,30.83
2019-02-04T09:07:29.273Z,32.67
2019-02-04T09:10:06.082Z,32.33
2019-02-04T09:12:40.886Z,36.60
2019-02-04T09:15:16.488Z,34.00
2019-02-04T09:17:51.659Z,32.60
2019-02-04T09:20:26.729Z,32.60
2019-02-04T09:23:01.588Z,33.23
2019-02-04T09:25:36.819Z,32.43
2019-02-04T09:28:11.544Z,32.43
2019-02-04T09:30:46.587Z,31.77
2019-02-04T09:33:21.500Z,34.60
2019-02-04T09:35:56.290Z,31.70
2019-02-04T09:38:31.124Z,32.57
2019-02-04T09:41:05.966Z,31.70
2019-02-04T09:43:40.762Z,31.17
2019-02-04T09:46:15.474Z,31.80
2019-02-04T09:48:50.195Z,31.87
2019-02-04T09:51:25.051Z,30.83
2019-02-04T09:53:59.926Z,32.03
2019-02-04T10:00:18.724Z,32.30
2019-02-04T10:02:53.507Z,32.17
2019-02-04T10:05:28.454Z,34.23
2019-02-04T10:08:05.719Z,31.87
2019-02-04T10:10:43.477Z,30.80
2019-02-04T10:13:18.311Z,31.07
2019-02-04T10:15:53.334Z,29.13
2019-02-04T10:18:28.570Z,29.27
2019-02-04T10:21:03.579Z,29.63
2019-02-04T10:23:38.458Z,29.83
2019-02-04T10:26:13.910Z,30.43
2019-02-04T10:28:48.702Z,31.77
2019-02-04T10:31:23.622Z,31.27
2019-02-04T10:33:58.576Z,31.70
2019-02-04T10:36:33.497Z,31.77
2019-02-04T10:39:09.441Z,29.87
2019-02-04T10:41:47.192Z,31.03
2019-02-04T10:44:22.119Z,29.73
2019-02-04T10:46:57.131Z,31.73
2019-02-04T10:49:32.068Z,31.17
2019-02-04T10:52:07.009Z,31.97
2019-02-04T10:54:42.091Z,33.70
2019-02-04T10:57:16.906Z,32.83
2019-02-04T10:59:51.739Z,34.17
2019-02-04T11:02:26.650Z,32.93
2019-02-04T11:05:01.528Z,33.60
2019-02-04T11:07:37.479Z,32.20
2019-02-04T11:10:12.903Z,33.47
2019-02-04T11:12:47.812Z,31.93
2019-02-04T11:15:25.514Z,33.03
2019-02-04T11:17:59.590Z,32.70
2019-02-04T11:20:36.201Z,31.73
2019-02-04T11:23:11.371Z,31.73
2019-02-04T11:25:50.610Z,31.93
2019-02-04T11:28:25.673Z,32.10
2019-02-04T11:31:02.672Z,30.50
2019-02-04T11:33:37.374Z,30.67
2019-02-04T11:36:12.381Z,29.73
2019-02-04T11:38:47.381Z,30.17
2019-02-04T11:41:22.316Z,29.30
2019-02-04T11:44:08.737Z,28.73
2019-02-04T11:46:43.798Z,30.80
2019-02-04T11:49:21.622Z,32.23
2019-02-04T11:51:56.567Z,31.70
2019-02-04T11:54:31.298Z,31.33
2019-02-04T11:57:06.362Z,31.17
2019-02-04T11:59:41.180Z,31.33
2019-02-04T12:02:16.243Z,29.63
2019-02-04T12:04:51.127Z,30.67
2019-02-04T12:07:26.219Z,31.10
2019-02-04T12:10:04.886Z,30.20
2019-02-04T12:12:39.756Z,30.03
2019-02-04T12:15:15.954Z,31.03
2019-02-04T12:17:51.283Z,34.40
2019-02-04T12:20:26.216Z,30.90
2019-02-04T12:23:01.046Z,30.33
2019-02-04T12:25:35.927Z,30.97
2019-02-04T12:28:10.907Z,30.77
2019-02-04T12:30:45.777Z,30.87
2019-02-04T12:33:20.673Z,30.63
2019-02-04T12:35:55.794Z,30.80
2019-02-04T12:38:30.618Z,32.53
2019-02-04T12:41:05.603Z,29.73
2019-02-04T12:43:41.523Z,30.47
2019-02-04T12:54:45.187Z,30.33
2019-02-04T12:57:19.980Z,30.33
2019-02-04T12:59:58.914Z,31.27
2019-02-04T13:02:34.728Z,32.43
2019-02-04T13:05:12.023Z,31.70
2019-02-04T13:07:47.107Z,30.50
2019-02-04T13:10:22.149Z,29.87
2019-02-04T13:12:57.042Z,29.20
2019-02-04T13:15:34.139Z,29.97
2019-02-04T13:18:09.851Z,29.70
2019-02-04T13:20:44.860Z,29.43
2019-02-04T13:26:13.802Z,29.70
2019-02-04T13:28:49.157Z,30.17
2019-02-04T13:31:24.299Z,29.60
2019-02-04T13:33:59.226Z,30.40
2019-02-04T13:36:34.202Z,30.30
2019-02-04T13:39:10.171Z,30.33
2019-02-04T13:41:46.230Z,30.23
2019-02-04T13:44:21.134Z,29.87
2019-02-04T13:46:55.983Z,29.77
2019-02-04T13:49:31.264Z,31.10
2019-02-04T13:52:06.203Z,30.40
2019-02-04T13:54:41.207Z,29.97
2019-02-04T13:57:15.950Z,30.50
2019-02-04T13:59:51.053Z,30.40
2019-02-04T14:02:26.308Z,30.10
2019-02-04T14:05:01.374Z,31.73
2019-02-04T14:11:04.625Z,29.57
2019-02-04T14:13:39.591Z,30.40
2019-02-04T14:16:14.678Z,29.83
2019-02-04T14:18:49.555Z,30.30
2019-02-04T14:21:24.434Z,29.97
2019-02-04T14:23:59.514Z,30.23
2019-02-04T14:26:35.544Z,30.33
2019-02-04T14:29:10.410Z,30.00
2019-02-04T14:31:45.599Z,31.27
2019-02-04T14:34:20.460Z,30.93
2019-02-04T14:36:56.459Z,31.43
2019-02-04T14:39:31.339Z,30.33
2019-02-04T14:42:10.279Z,29.50
2019-02-04T14:45:08.259Z,29.60
2019-02-04T14:48:05.637Z,30.03
2019-02-04T14:50:52.098Z,30.07
2019-02-04T14:54:09.783Z,30.00
2019-02-04T14:57:08.377Z,29.43
2019-02-04T14:59:51.266Z,29.70
2019-02-04T15:02:59.799Z,29.53
2019-02-04T15:06:09.952Z,30.17
2019-02-04T15:09:41.240Z,29.33
2019-02-04T15:12:34.794Z,30.50
2019-02-04T15:15:17.275Z,30.03
2019-02-04T15:18:17.054Z,29.13
2019-02-04T15:21:36.353Z,31.37
2019-02-04T15:25:17.230Z,30.33
2019-02-04T15:28:16.630Z,30.13
2019-02-04T15:31:19.764Z,30.23
2019-02-04T15:34:32.662Z,29.70
2019-02-04T15:37:25.334Z,30.77
2019-02-04T15:40:18.312Z,30.87
2019-02-04T15:43:36.339Z,31.13
2019-02-04T15:46:36.752Z,33.27
2019-02-04T15:50:06.370Z,32.60
2019-02-04T15:52:45.599Z,30.93
2019-02-04T15:55:20.012Z,30.50
2019-02-04T15:57:54.852Z,31.27
2019-02-04T16:00:29.798Z,32.43
2019-02-04T16:03:04.774Z,31.53
2019-02-04T16:05:39.610Z,30.83
2019-02-04T16:08:14.564Z,31.33
2019-02-04T16:10:49.469Z,30.30
2019-02-04T16:13:24.347Z,29.90
2019-02-04T16:15:59.501Z,31.23
2019-02-04T16:18:34.227Z,30.80
2019-02-04T16:21:10.115Z,30.97
2019-02-04T16:23:44.955Z,30.33
2019-02-04T16:26:19.755Z,35.47
2019-02-04T16:28:54.705Z,35.20
2019-02-04T16:31:29.656Z,32.57
2019-02-04T16:34:04.989Z,32.97
2019-02-04T16:36:39.944Z,35.67
2019-02-04T16:39:16.051Z,38.60
2019-02-04T16:41:51.131Z,33.40
2019-02-04T16:44:26.057Z,36.80
2019-02-04T16:47:01.091Z,37.17
2019-02-04T16:49:35.950Z,33.27
2019-02-04T16:52:10.826Z,33.17
2019-02-04T16:54:45.863Z,32.10
2019-02-04T16:57:20.752Z,31.90
2019-02-04T16:59:55.571Z,31.63
2019-02-04T17:02:30.380Z,35.87
2019-02-04T17:05:08.547Z,32.57
2019-02-04T17:07:43.642Z,57.77
2019-02-04T17:10:20.136Z,40.60
2019-02-04T17:12:55.226Z,35.80
2019-02-04T17:15:30.782Z,33.53
2019-02-04T17:18:06.085Z,31.73
2019-02-04T17:20:41.111Z,31.17
2019-02-04T17:23:22.456Z,34.17
2019-02-04T17:25:52.758Z,33.23
2019-02-04T17:28:27.757Z,33.30
2019-02-04T17:31:02.903Z,32.47
2019-02-04T17:33:37.719Z,33.23
2019-02-04T17:36:13.194Z,34.63
2019-02-04T17:38:49.172Z,36.23
2019-02-04T17:41:24.139Z,37.40
2019-02-04T17:43:59.970Z,35.53
2019-02-04T17:46:35.124Z,34.17
2019-02-04T17:49:09.931Z,34.57
2019-02-04T17:51:44.683Z,34.40
2019-02-04T17:54:19.515Z,35.20
2019-02-04T17:56:54.799Z,36.17
2019-02-04T17:59:29.616Z,39.17
2019-02-04T18:02:04.628Z,36.83
2019-02-04T18:04:39.514Z,35.33
2019-02-04T18:07:20.628Z,34.50
2019-02-04T18:09:55.611Z,36.90
2019-02-04T18:12:30.548Z,37.70
2019-02-04T18:15:07.519Z,35.03
2019-02-04T18:17:42.507Z,35.63
2019-02-04T18:20:17.615Z,36.67
2019-02-04T18:22:52.550Z,33.97
2019-02-04T18:25:27.615Z,34.17
2019-02-04T18:28:02.732Z,32.27
2019-02-04T18:30:38.212Z,33.07
2019-02-04T18:33:13.042Z,34.50
2019-02-04T18:35:49.366Z,33.87
2019-02-04T18:38:24.166Z,34.13
2019-02-04T18:40:59.578Z,32.43
2019-02-04T18:43:34.416Z,31.53
2019-02-04T18:46:09.414Z,35.63
2019-02-04T18:48:44.827Z,36.13
2019-02-04T18:51:19.811Z,34.30
2019-02-04T18:53:57.833Z,33.07
2019-02-04T18:56:31.371Z,38.43
2019-02-04T18:59:06.231Z,47.43
2019-02-04T19:01:41.047Z,36.37
2019-02-04T19:04:17.694Z,37.60
2019-02-04T19:06:52.595Z,37.17
2019-02-04T19:09:27.507Z,35.97
2019-02-04T19:12:02.663Z,37.27
2019-02-04T19:14:37.671Z,36.50
2019-02-04T19:17:12.611Z,35.03
2019-02-04T19:22:41.475Z,47.30
2019-02-04T19:25:16.871Z,37.13
2019-02-04T19:27:52.765Z,36.50
2019-02-04T19:30:58.326Z,35.53
2019-02-04T19:33:33.218Z,36.40
2019-02-04T19:36:09.711Z,38.07
2019-02-04T19:38:45.902Z,36.57
2019-02-04T19:41:20.863Z,35.77
2019-02-04T19:43:55.755Z,38.97
2019-02-04T19:46:30.828Z,49.23
2019-02-04T19:49:06.349Z,41.50
2019-02-04T19:51:41.270Z,40.40
2019-02-04T19:54:21.586Z,37.57
2019-02-04T19:56:54.820Z,39.10
2019-02-04T19:59:30.013Z,40.80
2019-02-04T20:02:05.760Z,39.77
2019-02-04T20:04:40.507Z,41.57
2019-02-04T20:07:15.688Z,39.70
2019-02-04T20:09:51.080Z,39.23
2019-02-04T20:12:26.941Z,36.57
2019-02-04T20:15:02.166Z,38.40
2019-02-04T20:17:38.248Z,38.00
2019-02-04T20:20:13.271Z,39.57
2019-02-04T20:22:48.141Z,39.20
2019-02-04T20:25:25.035Z,43.87
2019-02-04T20:28:00.173Z,40.40
2019-02-04T20:30:45.459Z,40.70
2019-02-04T20:33:14.263Z,38.40
2019-02-04T20:35:49.229Z,36.67
2019-02-04T20:38:27.194Z,36.67
2019-02-04T20:41:00.429Z,35.97
2019-02-04T20:43:35.163Z,35.10
2019-02-04T20:46:09.922Z,34.17
2019-02-04T20:48:44.843Z,34.43
2019-02-04T20:51:19.719Z,34.10
2019-02-04T20:53:54.458Z,33.67
2019-02-04T20:56:29.259Z,34.70
2019-02-04T20:59:04.478Z,34.10
2019-02-04T21:01:39.296Z,35.00
2019-02-04T21:04:14.108Z,34.53
2019-02-04T21:06:55.664Z,34.33
2019-02-04T21:09:25.343Z,33.93
2019-02-04T21:12:00.147Z,33.23
2019-02-04T21:14:34.888Z,34.60
2019-02-04T21:17:09.696Z,32.97
2019-02-04T21:19:44.427Z,33.10
2019-02-04T21:22:19.308Z,32.37
2019-02-04T21:24:56.492Z,32.17
2019-02-04T21:27:30.723Z,32.00
2019-02-04T21:30:11.396Z,31.70
2019-02-04T21:32:46.515Z,32.53
2019-02-04T21:35:22.612Z,32.10
2019-02-04T21:37:57.530Z,32.77
2019-02-04T21:40:32.832Z,32.27
2019-02-04T21:43:07.704Z,31.10
2019-02-04T21:45:44.078Z,32.17
2019-02-04T21:48:18.803Z,31.63
2019-02-04T21:50:53.994Z,33.47
2019-02-04T21:53:29.690Z,33.23
2019-02-04T21:56:05.581Z,31.93
2019-02-04T21:58:40.331Z,30.53
2019-02-04T22:01:15.528Z,31.17
2019-02-04T22:03:50.347Z,31.13
2019-02-04T22:06:25.196Z,30.93
2019-02-04T22:08:59.979Z,31.97
2019-02-04T22:11:34.789Z,30.87
2019-02-04T22:14:10.206Z,29.67
2019-02-04T22:16:44.930Z,30.30
2019-02-04T22:19:20.039Z,29.50
2019-02-04T22:21:54.762Z,29.53
2019-02-04T22:24:29.498Z,29.70
2019-02-04T22:27:04.475Z,29.17
2019-02-04T22:29:39.213Z,29.03
2019-02-04T22:32:14.193Z,30.43
2019-02-04T22:34:49.292Z,30.20
2019-02-04T22:37:24.095Z,29.97
2019-02-04T22:39:58.834Z,30.07
2019-02-04T22:42:33.644Z,30.00
2019-02-04T22:45:09.798Z,29.80
2019-02-04T22:47:44.679Z,28.83
2019-02-04T22:50:22.374Z,28.47
2019-02-04T22:52:57.291Z,28.33
2019-02-04T22:55:32.796Z,28.60
2019-02-04T22:58:07.924Z,28.37
2019-02-04T23:00:51.426Z,28.80
2019-02-04T23:03:26.958Z,29.67
2019-02-04T23:06:01.843Z,28.20
2019-02-04T23:08:36.566Z,29.43
2019-02-04T23:11:11.459Z,29.90
2019-02-04T23:13:46.251Z,29.23
2019-02-04T23:16:21.075Z,28.30
2019-02-04T23:18:55.795Z,29.50
2019-02-04T23:21:30.610Z,28.70
2019-02-04T23:24:06.719Z,28.73
2019-02-04T23:26:41.459Z,28.73
2019-02-04T23:29:16.344Z,28.60
2019-02-04T23:31:51.219Z,28.47
2019-02-04T23:34:26.015Z,28.43
2019-02-04T23:37:00.843Z,28.10
2019-02-04T23:39:35.631Z,28.80
2019-02-04T23:42:10.516Z,28.63
2019-02-04T23:44:45.397Z,27.90
2019-02-04T23:47:20.212Z,28.50
2019-02-04T23:49:55.007Z,28.43
2019-02-04T23:52:29.744Z,28.93
2019-02-04T23:55:05.407Z,30.47
2019-02-04T23:57:40.133Z,28.83
